createdAt,value
2022-08-12T00:00:43.221Z,0.00
2022-08-12T00:02:03.172Z,0.00
2022-08-12T00:02:44.243Z,0.00
2022-08-12T00:03:44.193Z,0.00
2022-08-12T00:04:43.184Z,0.00
2022-08-12T00:06:01.735Z,0.00
2022-08-12T00:06:44.164Z,0.00
2022-08-12T00:07:43.186Z,0.00
2022-08-12T00:08:43.152Z,0.00
2022-08-12T00:09:43.144Z,0.00
2022-08-12T00:10:43.139Z,0.00
2022-08-12T00:11:43.138Z,0.00
2022-08-12T00:12:43.152Z,0.00
2022-08-12T00:13:43.117Z,0.00
2022-08-12T00:14:43.109Z,0.00
2022-08-12T00:15:43.102Z,0.00
2022-08-12T00:16:43.095Z,0.00
2022-08-12T00:17:43.117Z,0.00
2022-08-12T00:18:43.079Z,0.00
2022-08-12T00:19:43.069Z,0.00
2022-08-12T00:20:43.060Z,0.00
2022-08-12T00:21:43.057Z,0.00
2022-08-12T00:22:43.074Z,0.00
2022-08-12T00:23:43.043Z,0.00
2022-08-12T00:24:43.028Z,0.00
2022-08-12T00:25:43.027Z,0.00
2022-08-12T00:26:44.020Z,0.00
2022-08-12T00:27:43.672Z,0.00
2022-08-12T00:28:43.003Z,0.00
2022-08-12T00:29:47.322Z,0.00
2022-08-12T00:30:44.985Z,0.00
2022-08-12T00:31:42.979Z,0.00
2022-08-12T00:32:44.392Z,0.00
2022-08-12T00:33:52.290Z,0.00
2022-08-12T00:34:43.949Z,0.00
2022-08-12T00:35:42.944Z,0.00
2022-08-12T00:36:42.942Z,0.00
2022-08-12T00:37:42.957Z,0.00
2022-08-12T00:38:42.920Z,0.00
2022-08-12T00:39:42.985Z,0.00
2022-08-12T00:40:42.908Z,0.00
2022-08-12T00:41:42.901Z,0.00
2022-08-12T00:42:43.136Z,0.00
2022-08-12T00:43:42.878Z,0.00
2022-08-12T00:44:43.879Z,0.00
2022-08-12T00:45:42.868Z,0.00
2022-08-12T00:46:42.854Z,0.00
2022-08-12T00:47:42.882Z,0.00
2022-08-12T00:48:42.842Z,0.00
2022-08-12T00:49:42.845Z,0.00
2022-08-12T00:50:43.825Z,0.00
2022-08-12T00:51:42.827Z,0.00
2022-08-12T00:52:42.837Z,0.00
2022-08-12T00:53:42.807Z,0.00
2022-08-12T00:54:42.792Z,0.00
2022-08-12T00:55:42.792Z,0.00
2022-08-12T00:56:42.783Z,0.00
2022-08-12T00:57:42.798Z,0.00
2022-08-12T00:58:42.765Z,0.00
2022-08-12T00:59:42.758Z,0.00
2022-08-12T01:00:42.749Z,0.00
2022-08-12T01:02:10.609Z,0.00
2022-08-12T01:02:43.758Z,0.00
2022-08-12T01:03:42.735Z,0.00
2022-08-12T01:04:42.720Z,0.00
2022-08-12T01:05:42.717Z,0.00
2022-08-12T01:06:42.711Z,0.00
2022-08-12T01:07:42.719Z,0.00
2022-08-12T01:08:42.691Z,0.00
2022-08-12T01:09:42.680Z,0.00
2022-08-12T01:10:42.670Z,0.00
2022-08-12T01:11:42.664Z,0.00
2022-08-12T01:12:42.685Z,0.00
2022-08-12T01:13:42.646Z,0.00
2022-08-12T01:14:42.642Z,0.00
2022-08-12T01:15:42.635Z,0.00
2022-08-12T01:16:42.621Z,0.00
2022-08-12T01:17:42.763Z,0.00
2022-08-12T01:18:42.610Z,0.00
2022-08-12T01:19:42.603Z,0.00
2022-08-12T01:20:42.594Z,0.00
2022-08-12T01:21:42.598Z,0.00
2022-08-12T01:22:42.617Z,0.00
2022-08-12T01:23:42.583Z,0.00
2022-08-12T01:24:42.574Z,0.00
2022-08-12T01:25:55.633Z,0.00
2022-08-12T01:26:43.552Z,0.00
2022-08-12T01:27:42.584Z,0.00
2022-08-12T01:28:42.539Z,0.00
2022-08-12T01:29:42.530Z,0.00
2022-08-12T01:30:42.524Z,0.00
2022-08-12T01:31:42.520Z,0.00
2022-08-12T01:32:42.536Z,0.00
2022-08-12T01:33:42.510Z,0.00
2022-08-12T01:34:42.497Z,0.00
2022-08-12T01:35:42.485Z,0.00
2022-08-12T01:36:42.477Z,0.00
2022-08-12T01:37:42.471Z,0.00
2022-08-12T01:38:42.532Z,0.00
2022-08-12T01:40:34.807Z,0.00
2022-08-12T01:40:46.857Z,0.00
2022-08-12T01:41:43.443Z,0.00
2022-08-12T01:42:43.436Z,0.00
2022-08-12T01:43:42.458Z,0.00
2022-08-12T01:44:42.413Z,0.00
2022-08-12T01:45:43.376Z,0.00
2022-08-12T01:46:42.406Z,0.00
2022-08-12T01:47:42.387Z,0.00
2022-08-12T01:48:42.408Z,0.00
2022-08-12T01:49:42.378Z,0.00
2022-08-12T01:50:43.100Z,0.00
2022-08-12T01:52:15.638Z,0.00
2022-08-12T01:52:43.346Z,0.00
2022-08-12T01:53:50.238Z,0.00
2022-08-12T01:54:43.340Z,0.00
2022-08-12T01:55:42.337Z,0.00
2022-08-12T01:56:42.324Z,0.00
2022-08-12T01:57:59.437Z,0.00
2022-08-12T01:58:43.330Z,0.00
2022-08-12T01:59:42.301Z,0.00
2022-08-12T02:00:43.483Z,0.00
2022-08-12T02:01:42.359Z,0.00
2022-08-12T02:02:42.300Z,0.00
2022-08-12T02:03:42.291Z,0.00
2022-08-12T02:04:42.261Z,0.00
2022-08-12T02:05:42.253Z,0.00
2022-08-12T02:06:42.252Z,0.00
2022-08-12T02:07:42.232Z,0.00
2022-08-12T02:08:42.252Z,0.00
2022-08-12T02:09:42.220Z,0.00
2022-08-12T02:10:49.913Z,0.00
2022-08-12T02:11:43.212Z,0.00
2022-08-12T02:12:42.529Z,0.00
2022-08-12T02:13:49.677Z,0.00
2022-08-12T02:14:43.179Z,0.00
2022-08-12T02:15:42.174Z,0.00
2022-08-12T02:16:42.167Z,0.00
2022-08-12T02:17:55.929Z,0.00
2022-08-12T02:18:43.170Z,0.00
2022-08-12T02:19:42.141Z,0.00
2022-08-12T02:20:51.268Z,0.00
2022-08-12T02:21:43.121Z,0.00
2022-08-12T02:22:42.284Z,0.00
2022-08-12T02:23:42.143Z,0.00
2022-08-12T02:24:42.101Z,0.00
2022-08-12T02:25:42.091Z,0.00
2022-08-12T02:26:42.090Z,0.00
2022-08-12T02:27:42.087Z,0.00
2022-08-12T02:28:42.100Z,0.00
2022-08-12T02:29:42.068Z,0.00
2022-08-12T02:30:42.617Z,0.00
2022-08-12T02:31:42.051Z,0.00
2022-08-12T02:32:42.040Z,0.00
2022-08-12T02:33:42.062Z,0.00
2022-08-12T02:34:42.025Z,0.00
2022-08-12T02:35:42.020Z,0.00
2022-08-12T02:36:42.016Z,0.00
2022-08-12T02:37:41.999Z,0.00
2022-08-12T02:38:42.022Z,0.00
2022-08-12T02:39:42.021Z,0.00
2022-08-12T02:40:41.983Z,0.00
2022-08-12T02:41:41.969Z,0.00
2022-08-12T02:42:41.959Z,0.00
2022-08-12T02:43:41.985Z,0.00
2022-08-12T02:44:41.948Z,0.00
2022-08-12T02:45:41.938Z,0.00
2022-08-12T02:46:41.937Z,0.00
2022-08-12T02:47:59.230Z,0.00
2022-08-12T02:48:42.960Z,0.00
2022-08-12T02:49:41.910Z,0.00
2022-08-12T02:50:41.905Z,0.00
2022-08-12T02:51:41.887Z,0.00
2022-08-12T02:52:42.020Z,0.00
2022-08-12T02:53:41.896Z,0.00
2022-08-12T02:54:41.874Z,0.00
2022-08-12T02:55:41.864Z,0.00
2022-08-12T02:56:41.853Z,0.00
2022-08-12T02:57:42.844Z,0.00
2022-08-12T02:58:45.432Z,0.00
2022-08-12T02:59:41.824Z,0.00
2022-08-12T03:00:41.885Z,0.00
2022-08-12T03:01:47.753Z,0.00
2022-08-12T03:02:42.796Z,0.00
2022-08-12T03:03:42.823Z,0.00
2022-08-12T03:04:44.053Z,0.00
2022-08-12T03:05:44.330Z,0.00
2022-08-12T03:06:41.778Z,0.00
2022-08-12T03:07:59.509Z,0.00
2022-08-12T03:08:42.791Z,0.00
2022-08-12T03:10:03.782Z,0.00
2022-08-12T03:10:42.739Z,0.00
2022-08-12T03:11:42.966Z,0.00
2022-08-12T03:12:49.840Z,0.00
2022-08-12T03:13:42.737Z,0.00
2022-08-12T03:14:41.736Z,4.00
2022-08-12T03:15:41.705Z,4.00
2022-08-12T03:16:41.697Z,0.00
2022-08-12T03:17:41.690Z,0.00
2022-08-12T03:18:44.443Z,4.00
2022-08-12T03:20:10.433Z,4.00
2022-08-12T03:20:42.662Z,0.00
2022-08-12T03:22:05.865Z,4.00
2022-08-12T03:22:42.807Z,4.00
2022-08-12T03:23:41.638Z,4.00
2022-08-12T03:24:41.653Z,4.00
2022-08-12T03:25:41.622Z,4.00
2022-08-12T03:26:41.624Z,8.00
2022-08-12T03:27:41.610Z,8.00
2022-08-12T03:28:41.602Z,8.00
2022-08-12T03:29:49.980Z,12.00
2022-08-12T03:30:42.587Z,12.00
2022-08-12T03:31:41.583Z,16.00
2022-08-12T03:32:41.569Z,16.00
2022-08-12T03:33:42.562Z,16.00
2022-08-12T03:34:41.580Z,20.00
2022-08-12T03:35:42.545Z,24.00
2022-08-12T03:36:41.541Z,28.00
2022-08-12T03:37:41.527Z,32.00
2022-08-12T03:38:41.557Z,40.00
2022-08-12T03:39:41.575Z,44.00
2022-08-12T03:40:41.507Z,52.00
2022-08-12T03:41:41.504Z,60.00
2022-08-12T03:42:41.770Z,68.00
2022-08-12T03:43:41.507Z,76.00
2022-08-12T03:44:41.477Z,88.00
2022-08-12T03:45:51.666Z,100.00
2022-08-12T03:46:42.469Z,112.00
2022-08-12T03:47:41.457Z,128.00
2022-08-12T03:48:41.476Z,144.00
2022-08-12T03:49:41.433Z,164.00
2022-08-12T03:50:41.432Z,180.00
2022-08-12T03:51:41.428Z,204.00
2022-08-12T03:52:41.622Z,224.00
2022-08-12T03:53:41.436Z,248.00
2022-08-12T03:54:42.669Z,272.00
2022-08-12T03:55:42.391Z,296.00
2022-08-12T03:56:41.386Z,328.00
2022-08-12T03:57:41.380Z,356.00
2022-08-12T03:58:41.371Z,392.00
2022-08-12T03:59:41.390Z,428.00
2022-08-12T04:00:41.391Z,464.00
2022-08-12T04:01:41.388Z,500.00
2022-08-12T04:02:41.548Z,540.00
2022-08-12T04:03:41.359Z,584.00
2022-08-12T04:04:41.324Z,632.00
2022-08-12T04:05:55.280Z,680.00
2022-08-12T04:06:42.308Z,736.00
2022-08-12T04:07:57.744Z,792.00
2022-08-12T04:08:42.303Z,848.00
2022-08-12T04:09:42.278Z,912.00
2022-08-12T04:10:41.272Z,980.00
2022-08-12T04:11:45.653Z,1052.00
2022-08-12T04:12:42.319Z,1128.00
2022-08-12T04:13:41.279Z,1204.00
2022-08-12T04:14:41.237Z,1288.00
2022-08-12T04:15:41.238Z,1380.00
2022-08-12T04:16:41.219Z,1468.00
2022-08-12T04:18:06.678Z,1568.00
2022-08-12T04:18:42.232Z,1676.00
2022-08-12T04:19:41.208Z,1796.00
2022-08-12T04:20:41.196Z,2232.00
2022-08-12T04:22:01.246Z,3068.00
2022-08-12T04:22:42.179Z,3984.00
2022-08-12T04:23:43.915Z,4452.00
2022-08-12T04:24:42.167Z,4752.00
2022-08-12T04:25:41.157Z,5400.00
2022-08-12T04:26:41.144Z,6096.00
2022-08-12T04:27:41.142Z,6784.00
2022-08-12T04:28:41.165Z,7424.00
2022-08-12T04:30:16.685Z,8320.00
2022-08-12T04:30:42.117Z,9184.00
2022-08-12T04:31:41.118Z,10176.00
2022-08-12T04:32:44.459Z,10944.00
2022-08-12T04:33:42.123Z,11552.00
2022-08-12T04:34:41.081Z,12576.00
2022-08-12T04:35:41.079Z,13504.00
2022-08-12T04:36:41.064Z,14304.00
2022-08-12T04:37:59.295Z,15200.00
2022-08-12T04:38:42.078Z,16032.00
2022-08-12T04:39:41.118Z,16928.00
2022-08-12T04:40:41.024Z,17984.00
2022-08-12T04:41:57.699Z,18848.00
2022-08-12T04:42:42.081Z,19584.00
2022-08-12T04:44:00.772Z,19872.00
2022-08-12T04:44:42.007Z,21632.00
2022-08-12T04:45:40.997Z,22752.00
2022-08-12T04:46:40.996Z,22880.00
2022-08-12T04:47:40.983Z,24992.00
2022-08-12T04:48:41.004Z,24736.00
2022-08-12T04:49:40.985Z,26496.00
2022-08-12T04:50:40.956Z,27104.00
2022-08-12T04:51:40.948Z,28928.00
2022-08-12T04:52:41.057Z,28704.00
2022-08-12T04:53:40.959Z,29632.00
2022-08-12T04:54:40.927Z,29504.00
2022-08-12T04:55:40.921Z,31648.00
2022-08-12T04:56:40.918Z,33088.00
2022-08-12T04:57:40.901Z,32960.00
2022-08-12T04:58:40.895Z,35072.00
2022-08-12T04:59:48.372Z,36672.00
2022-08-12T05:00:41.883Z,37056.00
2022-08-12T05:01:40.871Z,37536.00
2022-08-12T05:02:41.122Z,39200.00
2022-08-12T05:03:46.112Z,40512.00
2022-08-12T05:04:41.869Z,40768.00
2022-08-12T05:05:40.845Z,43072.00
2022-08-12T05:06:40.841Z,44000.00
2022-08-12T05:07:53.679Z,44640.00
2022-08-12T05:08:41.821Z,44896.00
2022-08-12T05:10:02.016Z,45280.00
2022-08-12T05:10:41.810Z,46720.00
2022-08-12T05:11:53.739Z,49856.00
2022-08-12T05:12:42.005Z,49728.00
2022-08-12T05:13:40.784Z,36320.00
2022-08-12T05:14:40.807Z,29632.00
2022-08-12T05:16:02.458Z,41632.00
2022-08-12T05:16:42.760Z,53184.00
2022-08-12T05:17:40.756Z,54976.00
2022-08-12T05:18:40.745Z,55616.00
2022-08-12T05:19:41.764Z,56256.00
2022-08-12T05:20:40.739Z,56864.00
2022-08-12T05:21:40.733Z,57472.00
2022-08-12T05:22:40.888Z,58656.00
2022-08-12T05:23:40.714Z,59456.00
2022-08-12T05:24:40.732Z,60000.00
2022-08-12T05:25:40.702Z,61632.00
2022-08-12T05:26:40.727Z,62112.00
2022-08-12T05:27:40.687Z,62880.00
2022-08-12T05:28:41.678Z,63840.00
2022-08-12T05:30:05.255Z,64640.00
2022-08-12T05:30:41.661Z,64832.00
2022-08-12T05:31:47.638Z,66240.00
2022-08-12T05:32:41.929Z,66880.00
2022-08-12T05:33:40.646Z,66976.00
2022-08-12T05:34:40.661Z,67360.00
2022-08-12T05:35:40.637Z,68224.00
2022-08-12T05:36:40.625Z,69888.00
2022-08-12T05:37:40.612Z,71840.00
2022-08-12T05:38:40.609Z,72288.00
2022-08-12T05:39:40.657Z,71392.00
2022-08-12T05:40:40.597Z,71648.00
2022-08-12T05:41:40.589Z,71744.00
2022-08-12T05:42:40.585Z,70400.00
2022-08-12T05:43:40.580Z,65632.00
2022-08-12T05:44:40.591Z,66944.00
2022-08-12T05:45:44.721Z,74720.00
2022-08-12T05:46:41.560Z,71520.00
2022-08-12T05:47:53.008Z,70144.00
2022-08-12T05:48:41.547Z,74848.00
2022-08-12T05:49:40.562Z,72896.00
2022-08-12T05:50:40.531Z,68224.00
2022-08-12T05:51:41.808Z,71328.00
2022-08-12T05:52:40.644Z,76160.00
2022-08-12T05:53:40.508Z,74688.00
2022-08-12T05:54:56.675Z,70432.00
2022-08-12T05:55:42.497Z,71360.00
2022-08-12T05:56:40.488Z,72992.00
2022-08-12T05:57:40.479Z,73216.00
2022-08-12T05:58:40.476Z,73344.00
2022-08-12T05:59:40.500Z,71072.00
2022-08-12T06:00:40.465Z,70304.00
2022-08-12T06:02:09.645Z,71488.00
2022-08-12T06:02:41.609Z,71456.00
2022-08-12T06:03:40.439Z,69760.00
2022-08-12T06:04:40.458Z,67136.00
2022-08-12T06:05:43.198Z,66976.00
2022-08-12T06:06:41.420Z,69088.00
2022-08-12T06:08:01.906Z,69472.00
2022-08-12T06:08:41.406Z,70336.00
2022-08-12T06:09:40.434Z,70304.00
2022-08-12T06:10:40.398Z,70656.00
2022-08-12T06:11:40.390Z,70272.00
2022-08-12T06:12:41.645Z,69824.00
2022-08-12T06:13:54.061Z,70912.00
2022-08-12T06:14:41.396Z,70528.00
2022-08-12T06:15:40.369Z,70112.00
2022-08-12T06:16:40.360Z,69824.00
2022-08-12T06:17:40.357Z,69952.00
2022-08-12T06:18:40.351Z,69728.00
2022-08-12T06:20:25.895Z,69440.00
2022-08-12T06:20:41.518Z,69184.00
2022-08-12T06:21:40.333Z,69056.00
2022-08-12T06:22:40.411Z,68480.00
2022-08-12T06:23:42.612Z,68832.00
2022-08-12T06:24:41.332Z,68256.00
2022-08-12T06:25:40.314Z,68064.00
2022-08-12T06:26:40.305Z,68992.00
2022-08-12T06:27:40.299Z,69664.00
2022-08-12T06:28:41.287Z,70336.00
2022-08-12T06:30:10.254Z,69696.00
2022-08-12T06:30:41.285Z,70688.00
2022-08-12T06:31:40.268Z,70464.00
2022-08-12T06:32:51.802Z,69152.00
2022-08-12T06:33:59.668Z,70688.00
2022-08-12T06:35:24.388Z,71168.00
2022-08-12T06:35:48.592Z,71200.00
2022-08-12T06:36:41.244Z,71840.00
2022-08-12T06:37:40.256Z,71904.00
2022-08-12T06:38:40.233Z,72736.00
2022-08-12T06:39:40.291Z,72288.00
2022-08-12T06:40:40.215Z,73216.00
2022-08-12T06:41:40.211Z,73312.00
2022-08-12T06:42:41.213Z,74304.00
2022-08-12T06:44:04.585Z,74240.00
2022-08-12T06:44:41.220Z,73024.00
2022-08-12T06:45:45.922Z,74272.00
2022-08-12T06:46:41.181Z,73504.00
2022-08-12T06:47:40.179Z,73088.00
2022-08-12T06:48:40.183Z,75264.00
2022-08-12T06:49:40.194Z,76416.00
2022-08-12T06:50:40.480Z,74912.00
2022-08-12T06:51:41.154Z,75904.00
2022-08-12T06:52:41.337Z,78176.00
2022-08-12T06:53:40.143Z,78592.00
2022-08-12T06:54:40.170Z,79744.00
2022-08-12T06:55:58.293Z,81152.00
2022-08-12T06:57:03.118Z,82048.00
2022-08-12T06:58:06.551Z,80544.00
2022-08-12T06:58:41.117Z,82976.00
2022-08-12T06:59:40.114Z,85728.00
2022-08-12T07:00:40.163Z,87008.00
2022-08-12T07:01:40.106Z,87136.00
2022-08-12T07:02:40.361Z,88064.00
2022-08-12T07:03:40.096Z,88192.00
2022-08-12T07:04:40.213Z,87872.00
2022-08-12T07:05:40.104Z,87424.00
2022-08-12T07:06:40.078Z,87264.00
2022-08-12T07:07:40.071Z,89504.00
2022-08-12T07:08:40.064Z,91552.00
2022-08-12T07:10:04.375Z,92608.00
2022-08-12T07:10:41.073Z,93312.00
2022-08-12T07:11:40.044Z,94912.00
2022-08-12T07:12:40.214Z,95456.00
2022-08-12T07:14:12.410Z,94144.00
2022-08-12T07:14:42.903Z,93600.00
2022-08-12T07:15:41.052Z,93888.00
2022-08-12T07:16:40.017Z,92960.00
2022-08-12T07:17:40.009Z,93984.00
2022-08-12T07:18:40.006Z,96384.00
2022-08-12T07:19:45.019Z,97312.00
2022-08-12T07:20:52.155Z,97024.00
2022-08-12T07:21:55.779Z,96704.00
2022-08-12T07:22:41.100Z,98336.00
2022-08-12T07:23:39.984Z,99424.00
2022-08-12T07:24:39.976Z,100352.00
2022-08-12T07:25:41.582Z,98912.00
2022-08-12T07:26:39.967Z,100224.00
2022-08-12T07:27:39.964Z,99968.00
2022-08-12T07:28:39.959Z,101376.00
2022-08-12T07:30:02.748Z,104384.00
2022-08-12T07:30:40.974Z,102656.00
2022-08-12T07:31:39.943Z,102496.00
2022-08-12T07:32:39.984Z,103680.00
2022-08-12T07:33:39.935Z,103840.00
2022-08-12T07:34:39.928Z,105280.00
2022-08-12T07:35:39.947Z,107008.00
2022-08-12T07:36:39.922Z,106752.00
2022-08-12T07:37:39.910Z,106400.00
2022-08-12T07:38:39.902Z,107104.00
2022-08-12T07:39:51.062Z,105312.00
2022-08-12T07:40:40.917Z,103264.00
2022-08-12T07:41:39.893Z,103552.00
2022-08-12T07:42:40.120Z,101504.00
2022-08-12T07:43:39.877Z,102432.00
2022-08-12T07:44:39.878Z,104800.00
2022-08-12T07:45:39.892Z,106624.00
2022-08-12T07:46:39.860Z,106656.00
2022-08-12T07:47:39.857Z,105920.00
2022-08-12T07:48:39.852Z,105024.00
2022-08-12T07:50:04.962Z,104960.00
2022-08-12T07:50:40.862Z,104096.00
2022-08-12T07:51:39.844Z,103136.00
2022-08-12T07:52:39.976Z,102944.00
2022-08-12T07:53:48.606Z,104160.00
2022-08-12T07:54:40.816Z,103968.00
2022-08-12T07:55:39.837Z,102304.00
2022-08-12T07:56:39.812Z,102240.00
2022-08-12T07:57:39.804Z,102112.00
2022-08-12T07:58:41.980Z,102560.00
2022-08-12T07:59:40.795Z,98080.00
2022-08-12T08:00:39.821Z,90592.00
2022-08-12T08:01:39.840Z,91264.00
2022-08-12T08:02:39.924Z,93728.00
2022-08-12T08:03:47.607Z,92288.00
2022-08-12T08:04:40.762Z,86784.00
2022-08-12T08:05:39.795Z,80160.00
2022-08-12T08:06:39.753Z,64000.00
2022-08-12T08:07:39.746Z,44608.00
2022-08-12T08:08:39.744Z,38528.00
2022-08-12T08:09:39.735Z,37504.00
2022-08-12T08:10:39.731Z,37184.00
2022-08-12T08:11:39.756Z,37216.00
2022-08-12T08:12:39.910Z,38208.00
2022-08-12T08:13:39.713Z,39296.00
2022-08-12T08:14:39.707Z,40160.00
2022-08-12T08:16:01.947Z,40384.00
2022-08-12T08:16:41.719Z,39584.00
2022-08-12T08:17:39.684Z,38624.00
2022-08-12T08:18:39.681Z,37888.00
2022-08-12T08:20:03.104Z,36864.00
2022-08-12T08:20:40.675Z,36000.00
2022-08-12T08:21:39.693Z,35616.00
2022-08-12T08:22:42.090Z,35552.00
2022-08-12T08:23:39.650Z,34752.00
2022-08-12T08:24:39.645Z,34144.00
2022-08-12T08:25:39.642Z,33696.00
2022-08-12T08:26:39.675Z,33760.00
2022-08-12T08:27:39.639Z,33344.00
2022-08-12T08:28:39.625Z,32608.00
2022-08-12T08:29:39.621Z,32128.00
2022-08-12T08:30:39.619Z,31200.00
2022-08-12T08:31:40.616Z,30848.00
2022-08-12T08:32:40.815Z,30592.00
2022-08-12T08:34:04.961Z,30112.00
2022-08-12T08:34:53.656Z,30016.00
2022-08-12T08:35:47.147Z,29792.00
2022-08-12T08:36:40.604Z,29696.00
2022-08-12T08:37:39.575Z,29632.00
2022-08-12T08:38:39.572Z,29376.00
2022-08-12T08:39:39.629Z,28960.00
2022-08-12T08:40:39.555Z,28512.00
2022-08-12T08:42:15.752Z,28480.00
2022-08-12T08:42:40.804Z,28960.00
2022-08-12T08:43:44.533Z,29056.00
2022-08-12T08:44:40.531Z,28640.00
2022-08-12T08:45:39.524Z,28128.00
2022-08-12T08:46:39.562Z,27808.00
2022-08-12T08:47:39.514Z,27776.00
2022-08-12T08:48:39.506Z,27488.00
2022-08-12T08:49:39.510Z,27232.00
2022-08-12T08:50:39.494Z,27360.00
2022-08-12T08:51:39.512Z,27264.00
2022-08-12T08:52:40.986Z,27232.00
2022-08-12T08:53:39.478Z,27776.00
2022-08-12T08:54:39.470Z,28448.00
2022-08-12T08:56:03.697Z,29184.00
2022-08-12T08:56:41.486Z,29536.00
2022-08-12T08:57:43.622Z,29152.00
2022-08-12T08:58:39.453Z,28800.00
2022-08-12T08:59:39.437Z,28992.00
2022-08-12T09:00:39.429Z,29664.00
2022-08-12T09:01:39.507Z,30752.00
2022-08-12T09:02:39.538Z,32416.00
2022-08-12T09:05:08.205Z,34176.00
2022-08-12T09:05:13.456Z,36512.00
2022-08-12T09:05:43.177Z,38688.00
2022-08-12T09:06:41.971Z,41440.00
2022-08-12T09:07:51.683Z,44576.00
2022-08-12T09:08:40.378Z,47296.00
2022-08-12T09:10:02.863Z,48896.00
2022-08-12T09:10:45.165Z,51680.00
2022-08-12T09:12:11.587Z,53088.00
2022-08-12T09:12:42.425Z,52320.00
2022-08-12T09:14:11.333Z,48672.00
2022-08-12T09:14:40.330Z,46272.00
2022-08-12T09:15:41.546Z,43424.00
2022-08-12T09:16:42.854Z,40000.00
2022-08-12T09:18:41.161Z,33632.00
2022-08-12T09:19:39.306Z,31520.00
2022-08-12T09:20:39.300Z,29088.00
2022-08-12T09:21:54.536Z,26944.00
2022-08-12T09:22:40.279Z,25600.00
2022-08-12T09:24:00.751Z,24288.00
2022-08-12T09:24:40.299Z,23264.00
2022-08-12T09:25:39.261Z,22272.00
2022-08-12T09:26:46.204Z,21408.00
2022-08-12T09:28:03.521Z,20704.00
2022-08-12T09:28:40.244Z,19936.00
2022-08-12T09:30:11.999Z,19200.00
2022-08-12T09:30:41.785Z,18336.00
2022-08-12T09:32:07.652Z,17856.00
2022-08-12T09:33:01.539Z,17408.00
2022-08-12T09:34:27.409Z,16960.00
2022-08-12T09:34:42.198Z,16288.00
2022-08-12T09:35:43.246Z,15848.00
2022-08-12T09:36:57.761Z,15212.00
2022-08-12T09:37:57.936Z,13912.00
2022-08-12T09:38:40.166Z,12812.00
2022-08-12T09:40:05.845Z,12284.00
2022-08-12T09:41:01.590Z,11860.00
2022-08-12T09:42:33.734Z,11400.00
2022-08-12T09:42:49.226Z,10952.00
2022-08-12T09:43:41.137Z,10588.00
2022-08-12T09:44:40.214Z,10312.00
2022-08-12T09:46:07.014Z,10072.00
2022-08-12T09:46:40.181Z,9904.00
2022-08-12T09:47:39.126Z,9764.00
2022-08-12T09:48:39.928Z,9608.00
2022-08-12T09:49:42.621Z,9448.00
2022-08-12T09:50:40.114Z,9280.00
2022-08-12T09:51:43.812Z,9116.00
2022-08-12T09:52:39.098Z,8972.00
2022-08-12T09:53:39.671Z,8864.00
2022-08-12T09:54:42.765Z,8800.00
2022-08-12T09:56:05.294Z,8728.00
2022-08-12T09:56:59.404Z,8692.00
2022-08-12T09:58:51.090Z,8656.00
2022-08-12T09:58:57.694Z,8600.00
2022-08-12T10:00:17.553Z,8588.00
2022-08-12T10:00:52.184Z,8556.00
2022-08-12T10:02:41.856Z,8504.00
2022-08-12T10:02:53.159Z,8488.00
2022-08-12T10:04:03.507Z,8492.00
2022-08-12T10:04:40.348Z,8476.00
2022-08-12T10:06:26.957Z,8452.00
2022-08-12T10:06:54.636Z,8428.00
2022-08-12T10:07:40.924Z,8448.00
2022-08-12T10:08:38.950Z,8428.00
2022-08-12T10:09:58.011Z,8400.00
2022-08-12T10:10:42.520Z,8392.00
2022-08-12T10:12:07.729Z,8392.00
2022-08-12T10:12:39.947Z,8360.00
2022-08-12T10:13:39.810Z,8332.00
2022-08-12T10:14:39.072Z,8304.00
2022-08-12T10:16:00.925Z,8236.00
2022-08-12T10:16:39.888Z,8180.00
2022-08-12T10:18:05.948Z,8120.00
2022-08-12T10:18:52.010Z,8096.00
2022-08-12T10:19:39.869Z,8056.00
2022-08-12T10:20:38.862Z,7992.00
2022-08-12T10:21:38.858Z,8016.00
2022-08-12T10:22:41.092Z,7972.00
2022-08-12T10:23:40.169Z,7956.00
2022-08-12T10:24:39.831Z,7948.00
2022-08-12T10:26:35.862Z,7952.00
2022-08-12T10:26:39.809Z,7912.00
2022-08-12T10:28:05.789Z,7900.00
2022-08-12T10:28:39.870Z,7884.00
2022-08-12T10:30:03.333Z,7856.00
2022-08-12T10:30:44.226Z,7860.00
2022-08-12T10:31:58.620Z,7820.00
2022-08-12T10:33:02.438Z,7772.00
2022-08-12T10:33:55.161Z,7764.00
2022-08-12T10:34:39.764Z,7760.00
2022-08-12T10:35:39.747Z,7740.00
2022-08-12T10:36:40.278Z,7728.00
2022-08-12T10:38:36.642Z,7728.00
2022-08-12T10:38:41.423Z,7712.00
2022-08-12T10:40:02.233Z,7700.00
2022-08-12T10:40:39.767Z,7680.00
2022-08-12T10:41:57.811Z,7656.00
2022-08-12T10:42:39.765Z,7656.00
2022-08-12T10:43:56.450Z,7640.00
2022-08-12T10:44:39.696Z,7604.00
2022-08-12T10:45:38.804Z,7604.00
2022-08-12T10:46:38.675Z,7592.00
2022-08-12T10:48:20.456Z,7576.00
2022-08-12T10:48:39.679Z,7584.00
2022-08-12T10:50:02.381Z,7584.00
2022-08-12T10:50:58.410Z,7584.00
2022-08-12T10:52:03.940Z,7580.00
2022-08-12T10:52:39.626Z,7572.00
2022-08-12T10:53:44.344Z,7604.00
2022-08-12T10:54:39.610Z,7612.00
2022-08-12T10:55:38.608Z,7608.00
2022-08-12T10:56:38.602Z,7572.00
2022-08-12T10:58:14.232Z,7580.00
2022-08-12T10:58:39.606Z,7568.00
2022-08-12T11:00:31.757Z,7584.00
2022-08-12T11:00:45.541Z,7564.00
2022-08-12T11:04:18.084Z,7568.00
2022-08-12T11:04:23.068Z,7524.00
2022-08-12T11:04:26.952Z,7540.00
2022-08-12T11:04:44.832Z,7512.00
2022-08-12T11:07:07.901Z,7508.00
2022-08-12T11:07:07.994Z,7500.00
2022-08-12T11:08:35.053Z,7484.00
2022-08-12T11:08:43.669Z,7468.00
2022-08-12T11:09:55.758Z,7492.00
2022-08-12T11:10:39.536Z,7500.00
2022-08-12T11:12:35.874Z,7476.00
2022-08-12T11:12:59.331Z,7504.00
2022-08-12T11:13:46.524Z,7504.00
2022-08-12T11:14:50.034Z,7488.00
2022-08-12T11:16:03.238Z,7472.00
2022-08-12T11:16:39.457Z,7488.00
2022-08-12T11:17:54.479Z,7504.00
2022-08-12T11:18:39.459Z,7484.00
2022-08-12T11:19:38.423Z,7464.00
2022-08-12T11:20:38.414Z,7472.00
2022-08-12T11:21:56.917Z,7472.00
2022-08-12T11:22:39.475Z,7480.00
2022-08-12T11:23:38.390Z,7484.00
2022-08-12T11:24:38.417Z,7496.00
2022-08-12T11:25:56.447Z,7528.00
2022-08-12T11:26:39.374Z,7528.00
2022-08-12T11:27:38.370Z,7556.00
2022-08-12T11:28:38.858Z,7552.00
2022-08-12T11:30:02.086Z,7540.00
2022-08-12T11:30:39.337Z,7564.00
2022-08-12T11:31:55.895Z,7588.00
2022-08-12T11:32:39.595Z,7584.00
2022-08-12T11:34:06.275Z,7628.00
2022-08-12T11:34:52.704Z,7608.00
2022-08-12T11:35:39.298Z,7604.00
2022-08-12T11:36:39.303Z,7596.00
2022-08-12T11:37:57.878Z,7576.00
2022-08-12T11:38:39.267Z,7560.00
2022-08-12T11:40:02.866Z,7544.00
2022-08-12T11:40:42.492Z,7560.00
2022-08-12T11:41:38.230Z,7544.00
2022-08-12T11:42:45.913Z,7536.00
2022-08-12T11:43:50.754Z,7548.00
2022-08-12T11:44:42.968Z,7576.00
2022-08-12T11:45:38.840Z,7592.00
2022-08-12T11:46:38.189Z,7632.00
2022-08-12T11:47:40.257Z,7640.00
2022-08-12T11:48:52.448Z,7636.00
2022-08-12T11:49:39.195Z,7576.00
2022-08-12T11:50:40.599Z,7540.00
2022-08-12T11:51:39.893Z,7512.00
2022-08-12T11:53:57.032Z,7528.00
2022-08-12T11:53:57.591Z,7524.00
2022-08-12T11:54:39.152Z,7520.00
2022-08-12T11:55:45.358Z,7508.00
2022-08-12T11:56:41.958Z,7496.00
2022-08-12T11:58:18.384Z,7380.00
2022-08-12T12:00:55.320Z,5200.00
2022-08-12T12:02:02.774Z,7380.00
2022-08-12T12:02:39.157Z,7388.00
2022-08-12T12:03:40.498Z,7352.00
2022-08-12T12:04:39.092Z,7352.00
2022-08-12T12:05:41.770Z,7336.00
2022-08-12T12:06:39.041Z,7364.00
2022-08-12T12:08:41.681Z,7340.00
2022-08-12T12:08:42.680Z,7344.00
2022-08-12T12:09:52.586Z,7336.00
2022-08-12T12:10:39.021Z,7324.00
2022-08-12T12:11:48.721Z,7320.00
2022-08-12T12:12:41.548Z,7328.00
2022-08-12T12:14:08.775Z,7328.00
2022-08-12T12:14:39.238Z,7368.00
2022-08-12T12:15:41.270Z,7388.00
2022-08-12T12:16:39.755Z,7352.00
2022-08-12T12:17:38.492Z,7344.00
2022-08-12T12:18:37.962Z,7332.00
2022-08-12T12:19:39.885Z,7328.00